Time;durP1;ratioP1;P1;durP2;ratioP2;P2;SDS_P1;SDS_P2;PMS_P1;PMS_P2;Temp;Humidity;BMP_temperature;BMP_pressure;BME280_temperature;BME280_humidity;BME280_pressure;Samples;Min_cycle;Max_cycle;Signal;HPM_P1;HPM_P2
2023/05/12 00:01:29;;;;;;;37.97;17.77;;;13.80;99.90;;;;;;4996832;28;20047;-72
2023/05/12 00:03:55;;;;;;;46.85;20.15;;;13.70;99.90;;;;;;4996877;28;20335;-72
2023/05/12 00:06:21;;;;;;;41.42;19.40;;;13.70;99.90;;;;;;4996976;28;20042;-72
2023/05/12 00:08:46;;;;;;;40.35;21.20;;;13.80;99.90;;;;;;4996761;28;20038;-72
2023/05/12 00:11:12;;;;;;;54.80;23.83;;;14.00;99.90;;;;;;4999301;28;20038;-72
2023/05/12 00:13:38;;;;;;;63.13;24.70;;;13.90;99.90;;;;;;4996746;28;20035;-73
2023/05/12 00:16:04;;;;;;;92.18;28.42;;;13.90;99.90;;;;;;4999194;28;20038;-72
2023/05/12 00:18:30;;;;;;;56.78;26.02;;;13.90;99.90;;;;;;4983218;28;20399;-72
2023/05/12 00:20:56;;;;;;;59.17;25.85;;;13.90;99.90;;;;;;5000409;28;20121;-72
2023/05/12 00:23:22;;;;;;;43.15;22.45;;;13.90;99.90;;;;;;5000363;28;20042;-72
2023/05/12 00:25:48;;;;;;;55.85;23.95;;;13.80;99.90;;;;;;5000339;28;20035;-72
2023/05/12 00:28:14;;;;;;;58.35;24.60;;;13.90;99.90;;;;;;5000388;28;20354;-72
2023/05/12 00:30:39;;;;;;;55.45;23.30;;;13.80;99.90;;;;;;5000193;28;20121;-72
2023/05/12 00:33:05;;;;;;;51.10;21.80;;;13.90;99.90;;;;;;5000295;28;20047;-72
2023/05/12 00:35:31;;;;;;;53.22;21.85;;;13.90;99.90;;;;;;5000021;28;20046;-72
2023/05/12 00:37:56;;;;;;;39.55;20.20;;;14.00;99.90;;;;;;5000379;28;20038;-72
2023/05/12 00:40:22;;;;;;;60.35;22.77;;;13.90;99.90;;;;;;4982937;28;20118;-72
2023/05/12 00:42:48;;;;;;;35.55;18.52;;;14.00;99.90;;;;;;4999425;28;20038;-72
2023/05/12 00:45:14;;;;;;;60.10;21.38;;;14.10;99.90;;;;;;4999789;28;20072;-72
2023/05/12 00:47:40;;;;;;;60.05;21.88;;;13.90;99.90;;;;;;5000099;28;20444;-72
2023/05/12 00:50:07;;;;;;;57.83;22.88;;;14.00;99.90;;;;;;4999804;28;20046;-72
2023/05/12 00:52:33;;;;;;;49.15;21.48;;;14.00;99.90;;;;;;4999801;28;20046;-72
2023/05/12 00:55:00;;;;;;;45.08;19.50;;;14.10;99.90;;;;;;5000043;28;20507;-72
2023/05/12 00:57:26;;;;;;;53.70;21.73;;;14.20;99.90;;;;;;4999791;28;20058;-72
2023/05/12 00:59:53;;;;;;;67.03;24.52;;;14.20;99.90;;;;;;5000116;28;20065;-72
2023/05/12 01:02:20;;;;;;;54.70;22.30;;;14.20;99.90;;;;;;4999556;28;20046;-72
2023/05/12 01:04:46;;;;;;;51.20;21.80;;;14.00;99.90;;;;;;4999286;28;20042;-72
2023/05/12 01:07:24;;;;;;;55.60;21.88;;;14.00;99.90;;;;;;4999794;28;20038;-73
2023/05/12 01:09:57;;;;;;;52.72;22.30;;;14.10;99.90;;;;;;4999657;28;20035;-72
2023/05/12 01:12:23;;;;;;;60.58;22.20;;;14.10;99.90;;;;;;4999257;28;20034;-72
2023/05/12 01:14:51;;;;;;;56.78;22.25;;;14.10;99.90;;;;;;4999305;28;20046;-72
2023/05/12 01:17:21;;;;;;;53.03;21.55;;;14.10;99.90;;;;;;4999326;28;20339;-73
2023/05/12 01:19:50;;;;;;;63.53;24.90;;;14.20;99.90;;;;;;4999395;28;20089;-72
2023/05/12 01:22:17;;;;;;;42.45;19.73;;;14.10;99.90;;;;;;4998200;28;20339;-73
2023/05/12 01:24:55;;;;;;;42.28;20.60;;;14.10;99.90;;;;;;4999400;28;20327;-72
2023/05/12 01:27:24;;;;;;;62.25;23.15;;;14.30;99.90;;;;;;4999228;28;20423;-72
2023/05/12 01:29:51;;;;;;;42.90;20.55;;;14.30;99.90;;;;;;4999059;28;20072;-73
2023/05/12 01:32:18;;;;;;;42.88;21.08;;;14.40;99.90;;;;;;4999291;28;20044;-72
2023/05/12 01:34:43;;;;;;;52.08;22.48;;;14.40;99.90;;;;;;4999346;28;20074;-73
2023/05/12 01:37:10;;;;;;;39.88;19.38;;;14.40;99.90;;;;;;4998985;28;20082;-72
2023/05/12 01:39:36;;;;;;;38.30;18.27;;;14.40;99.90;;;;;;4999136;28;20081;-72
2023/05/12 01:42:03;;;;;;;48.22;21.27;;;14.40;99.90;;;;;;4998535;28;20049;-72
2023/05/12 01:44:28;;;;;;;39.88;19.10;;;14.40;99.90;;;;;;4998635;28;20058;-72
2023/05/12 01:46:55;;;;;;;37.33;19.67;;;14.50;99.90;;;;;;4999062;28;20041;-72
2023/05/12 01:49:20;;;;;;;60.22;23.38;;;14.50;99.90;;;;;;4998963;28;20038;-72
2023/05/12 01:51:46;;;;;;;44.63;20.38;;;14.60;99.90;;;;;;4981876;28;20038;-72
2023/05/12 01:54:12;;;;;;;44.00;19.98;;;14.60;99.90;;;;;;4998628;28;20048;-72
2023/05/12 01:56:37;;;;;;;52.60;22.20;;;14.50;99.90;;;;;;4998594;28;20455;-72
2023/05/12 01:59:03;;;;;;;43.80;21.10;;;14.50;99.90;;;;;;4998479;28;20042;-72
2023/05/12 02:01:31;;;;;;;38.78;20.63;;;14.50;99.90;;;;;;4998870;28;20057;-72
2023/05/12 02:03:57;;;;;;;42.00;21.52;;;14.50;99.90;;;;;;4998441;28;20118;-72
2023/05/12 02:06:22;;;;;;;53.60;24.05;;;14.50;99.90;;;;;;4998525;28;20038;-73
2023/05/12 02:08:48;;;;;;;56.38;25.38;;;14.50;99.90;;;;;;4965070;28;20377;-72
2023/05/12 02:11:14;;;;;;;45.92;22.95;;;14.60;99.90;;;;;;4998299;28;20038;-72
2023/05/12 02:13:41;;;;;;;45.10;22.80;;;14.50;99.90;;;;;;4998144;28;20050;-72
2023/05/12 02:16:07;;;;;;;49.83;23.30;;;14.50;99.90;;;;;;4998437;28;20392;-72
2023/05/12 02:18:32;;;;;;;69.05;26.55;;;14.50;99.90;;;;;;4998277;28;20058;-73
2023/05/12 02:20:58;;;;;;;68.88;26.55;;;14.50;99.90;;;;;;4981262;28;20054;-73
2023/05/12 02:23:24;;;;;;;60.15;22.23;;;14.50;99.90;;;;;;4997996;28;20034;-73
2023/05/12 02:25:49;;;;;;;46.20;23.65;;;14.40;99.90;;;;;;4998357;28;20081;-72
2023/05/12 02:28:15;;;;;;;75.70;26.60;;;14.40;99.90;;;;;;4998027;28;20121;-73
2023/05/12 02:30:49;;;;;;;54.78;22.85;;;14.40;99.90;;;;;;4998269;28;20077;-72
2023/05/12 02:33:19;;;;;;;55.13;23.58;;;14.50;99.90;;;;;;4997496;28;20416;-72
2023/05/12 02:35:45;;;;;;;58.33;25.63;;;14.40;99.90;;;;;;4998001;28;20114;-73
2023/05/12 02:38:11;;;;;;;62.40;24.92;;;14.40;99.90;;;;;;4997828;28;20447;-72
2023/05/12 02:40:37;;;;;;;58.70;24.95;;;14.30;99.90;;;;;;4997884;28;20077;-73
2023/05/12 02:43:03;;;;;;;70.43;25.38;;;14.40;99.90;;;;;;4997546;28;20038;-72
2023/05/12 02:45:29;;;;;;;74.25;26.70;;;14.40;99.90;;;;;;4997582;28;20054;-72
2023/05/12 02:47:54;;;;;;;48.40;22.00;;;14.40;99.90;;;;;;4998002;28;20065;-72
2023/05/12 02:50:20;;;;;;;48.45;22.42;;;14.40;99.90;;;;;;4997652;28;20092;-72
2023/05/12 02:52:49;;;;;;;66.10;25.50;;;14.40;99.90;;;;;;4997691;28;20073;-73
2023/05/12 02:55:15;;;;;;;54.75;22.48;;;14.40;99.90;;;;;;4980268;28;20042;-72
2023/05/12 02:57:42;;;;;;;72.75;27.35;;;14.50;99.90;;;;;;4997680;28;20064;-73
2023/05/12 03:00:08;;;;;;;51.85;23.00;;;14.30;99.90;;;;;;4997798;28;20074;-73
2023/05/12 03:02:38;;;;;;;66.82;25.13;;;14.30;99.90;;;;;;4997493;28;20097;-73
2023/05/12 03:05:04;;;;;;;48.90;22.13;;;14.40;99.90;;;;;;4980109;28;20483;-73
2023/05/12 03:07:30;;;;;;;77.10;25.83;;;14.40;99.90;;;;;;4997298;28;20039;-73
2023/05/12 03:09:57;;;;;;;72.28;24.80;;;14.40;99.90;;;;;;4997561;28;20042;-73
2023/05/12 03:12:22;;;;;;;54.08;23.20;;;14.50;99.90;;;;;;4996994;28;20034;-73
2023/05/12 03:14:50;;;;;;;66.35;24.80;;;14.50;99.90;;;;;;4997488;28;20046;-73
2023/05/12 03:17:15;;;;;;;62.17;23.88;;;14.60;99.90;;;;;;4997249;28;20507;-73
2023/05/12 03:19:41;;;;;;;46.47;21.58;;;14.60;99.90;;;;;;4997352;28;20121;-73
2023/05/12 03:22:07;;;;;;;56.45;24.83;;;14.60;99.90;;;;;;4997159;28;20378;-73
2023/05/12 03:24:33;;;;;;;57.20;23.30;;;14.60;99.90;;;;;;4996986;28;20146;-73
2023/05/12 03:26:59;;;;;;;59.17;24.17;;;14.70;99.90;;;;;;4979925;28;20097;-73
2023/05/12 03:29:25;;;;;;;51.00;22.40;;;14.70;99.90;;;;;;4997067;28;20038;-73
2023/05/12 03:31:51;;;;;;;54.85;23.95;;;14.80;99.90;;;;;;4997105;28;20045;-73
2023/05/12 03:34:17;;;;;;;63.80;25.77;;;14.80;99.90;;;;;;4997222;28;20121;-72
2023/05/12 03:36:42;;;;;;;43.95;22.10;;;14.80;99.90;;;;;;4997165;28;20475;-73
2023/05/12 03:39:08;;;;;;;51.35;22.27;;;14.90;99.90;;;;;;4996918;28;20092;-73
2023/05/12 03:41:37;;;;;;;57.95;23.38;;;14.90;99.90;;;;;;4997079;28;20383;-73
2023/05/12 03:44:07;;;;;;;58.83;25.23;;;14.90;99.90;;;;;;4996555;28;20348;-73
2023/05/12 03:46:33;;;;;;;60.47;23.90;;;14.70;99.90;;;;;;5000037;28;20042;-73
2023/05/12 03:48:59;;;;;;;41.35;21.33;;;14.70;99.90;;;;;;5001036;28;20046;-72
2023/05/12 03:51:26;;;;;;;50.13;21.70;;;14.60;99.90;;;;;;4983687;28;20035;-72
2023/05/12 03:53:52;;;;;;;65.75;25.85;;;14.70;99.90;;;;;;4983795;28;20431;-73
2023/05/12 03:56:18;;;;;;;58.83;23.25;;;14.70;99.90;;;;;;5001037;28;20042;-73
2023/05/12 03:58:46;;;;;;;48.03;22.10;;;14.70;99.90;;;;;;5000873;28;20375;-73
2023/05/12 04:01:11;;;;;;;61.83;25.63;;;14.80;99.90;;;;;;5001054;28;20046;-73
2023/05/12 04:03:37;;;;;;;57.42;24.67;;;14.80;99.90;;;;;;5000667;28;20049;-73
2023/05/12 04:06:04;;;;;;;46.42;21.98;;;14.70;99.90;;;;;;5000790;28;20042;-73
2023/05/12 04:08:30;;;;;;;46.38;22.77;;;14.70;99.90;;;;;;4983233;28;20042;-73
2023/05/12 04:10:57;;;;;;;41.95;21.83;;;14.70;99.90;;;;;;5000859;28;20093;-73
2023/05/12 04:13:27;;;;;;;43.72;21.90;;;14.80;99.90;;;;;;5000174;28;20062;-73
2023/05/12 04:15:58;;;;;;;52.20;24.42;;;14.90;99.90;;;;;;5000686;28;20085;-73
2023/05/12 04:18:28;;;;;;;55.90;24.52;;;14.90;99.90;;;;;;5000445;28;20085;-72
2023/05/12 04:20:54;;;;;;;48.75;23.20;;;15.00;99.90;;;;;;5000567;28;20108;-73
2023/05/12 04:23:19;;;;;;;58.45;25.33;;;15.00;99.90;;;;;;5000545;28;20352;-73
2023/05/12 04:25:45;;;;;;;53.58;24.13;;;15.00;99.90;;;;;;5000388;28;20039;-73
2023/05/12 04:28:11;;;;;;;67.20;26.42;;;15.00;99.90;;;;;;5000416;28;20458;-73
2023/05/12 04:30:41;;;;;;;78.28;26.63;;;15.00;99.90;;;;;;5000345;28;20041;-73
2023/05/12 04:33:12;;;;;;;56.60;25.13;;;15.00;99.90;;;;;;5000111;28;20450;-73
2023/05/12 04:35:38;;;;;;;49.97;24.08;;;14.90;99.90;;;;;;5000278;28;20042;-73
2023/05/12 04:38:03;;;;;;;87.60;30.85;;;15.00;99.90;;;;;;4983309;28;20425;-73
2023/05/12 04:40:29;;;;;;;69.68;27.27;;;15.00;99.90;;;;;;5000136;28;20427;-73
2023/05/12 04:42:55;;;;;;;65.75;27.33;;;15.10;99.90;;;;;;4999709;28;20046;-73
2023/05/12 04:45:21;;;;;;;47.97;23.98;;;15.20;99.90;;;;;;4999733;28;20061;-73
2023/05/12 04:47:46;;;;;;;52.40;25.67;;;15.20;99.90;;;;;;5000111;28;20332;-73
2023/05/12 04:50:12;;;;;;;84.72;29.05;;;14.90;99.90;;;;;;4999779;28;20121;-73
2023/05/12 04:52:38;;;;;;;82.38;30.30;;;14.90;99.90;;;;;;4999960;28;20039;-73
2023/05/12 04:55:05;;;;;;;77.50;29.00;;;15.00;99.90;;;;;;4999955;28;20042;-73
2023/05/12 04:57:31;;;;;;;75.45;29.08;;;15.00;99.90;;;;;;4999386;28;20042;-73
2023/05/12 04:59:58;;;;;;;94.05;31.98;;;15.10;99.90;;;;;;4999914;28;20097;-73
2023/05/12 05:02:24;;;;;;;72.47;30.02;;;15.10;99.90;;;;;;4999583;28;20085;-73
2023/05/12 05:04:50;;;;;;;72.30;28.77;;;15.00;99.90;;;;;;4982197;28;20344;-73
2023/05/12 05:07:15;;;;;;;86.43;33.72;;;15.10;99.90;;;;;;4999914;28;20042;-73
2023/05/12 05:09:41;;;;;;;78.85;31.98;;;15.00;99.90;;;;;;4982291;28;20069;-73
2023/05/12 05:12:07;;;;;;;64.00;29.58;;;14.90;99.90;;;;;;4999392;28;20379;-73
2023/05/12 05:14:33;;;;;;;62.28;29.30;;;15.00;99.90;;;;;;4999457;28;20104;-73
2023/05/12 05:16:58;;;;;;;86.32;33.67;;;15.00;99.90;;;;;;4999416;28;20435;-73
2023/05/12 05:19:25;;;;;;;62.20;30.40;;;15.00;99.90;;;;;;4999139;28;20407;-73
2023/05/12 05:21:50;;;;;;;105.70;36.08;;;15.00;99.90;;;;;;4999210;28;20085;-73
2023/05/12 05:24:16;;;;;;;80.50;33.40;;;15.00;99.90;;;;;;4999369;28;20074;-73
2023/05/12 05:26:42;;;;;;;74.00;30.65;;;15.10;99.90;;;;;;4999261;28;20038;-73
2023/05/12 05:29:08;;;;;;;96.70;34.90;;;15.00;99.90;;;;;;4999154;28;20038;-73
2023/05/12 05:31:33;;;;;;;79.95;31.30;;;14.80;99.90;;;;;;4999244;28;20042;-73
2023/05/12 05:33:59;;;;;;;66.90;30.13;;;14.80;99.90;;;;;;4999308;28;20051;-73
2023/05/12 05:36:25;;;;;;;91.40;32.35;;;14.80;99.90;;;;;;4982014;28;20050;-73
2023/05/12 05:38:51;;;;;;;82.68;32.83;;;14.80;99.90;;;;;;4998997;28;20049;-73
2023/05/12 05:41:17;;;;;;;74.68;29.23;;;14.90;99.90;;;;;;4998997;28;20038;-73
2023/05/12 05:43:42;;;;;;;88.32;33.65;;;15.00;99.90;;;;;;4998683;28;20046;-72
2023/05/12 05:46:08;;;;;;;75.35;31.95;;;15.00;99.90;;;;;;4998419;28;20058;-73
2023/05/12 05:48:35;;;;;;;78.70;32.22;;;15.10;99.90;;;;;;4998707;28;20043;-73
2023/05/12 05:51:01;;;;;;;64.75;30.25;;;15.10;99.90;;;;;;4981784;28;20078;-73
2023/05/12 05:53:27;;;;;;;62.78;30.92;;;15.00;99.90;;;;;;4998918;28;20034;-73
2023/05/12 05:55:52;;;;;;;75.82;30.65;;;15.00;99.90;;;;;;4998952;28;20446;-73
2023/05/12 05:58:18;;;;;;;63.45;30.58;;;15.10;99.90;;;;;;4998652;28;20045;-73
2023/05/12 06:00:44;;;;;;;64.93;29.33;;;15.20;99.90;;;;;;4998500;28;20339;-73
2023/05/12 06:03:10;;;;;;;66.07;28.45;;;15.40;99.90;;;;;;4998307;28;20039;-73
2023/05/12 06:05:36;;;;;;;65.47;27.60;;;15.40;99.90;;;;;;4998655;28;20042;-73
2023/05/12 06:08:01;;;;;;;53.92;26.83;;;15.40;99.90;;;;;;4997996;28;20435;-73
2023/05/12 06:10:27;;;;;;;58.03;27.48;;;15.40;99.90;;;;;;4998483;28;20038;-73
2023/05/12 06:12:53;;;;;;;47.35;26.23;;;15.50;99.90;;;;;;4998147;28;20332;-74
2023/05/12 06:15:18;;;;;;;49.83;25.02;;;15.50;99.90;;;;;;4998345;28;20129;-73
2023/05/12 06:17:44;;;;;;;45.47;24.33;;;15.50;99.90;;;;;;4998165;28;20045;-73
2023/05/12 06:20:12;;;;;;;55.72;27.13;;;15.30;99.90;;;;;;4998297;28;20164;-71
2023/05/12 06:22:38;;;;;;;60.65;27.90;;;15.40;99.90;;;;;;4981181;28;20151;-70
2023/05/12 06:25:05;;;;;;;56.22;26.80;;;15.50;99.90;;;;;;4998092;28;20054;-71
2023/05/12 06:27:31;;;;;;;49.15;26.25;;;15.60;99.90;;;;;;4998293;28;20424;-70
2023/05/12 06:29:56;;;;;;;60.75;28.48;;;15.80;99.90;;;;;;4997996;28;20039;-71
2023/05/12 06:32:22;;;;;;;63.38;28.63;;;15.90;99.90;;;;;;4998002;28;20038;-70
2023/05/12 06:34:48;;;;;;;57.83;28.08;;;15.70;99.90;;;;;;4998001;28;20050;-69
2023/05/12 06:37:13;;;;;;;57.83;27.42;;;15.80;99.90;;;;;;4980821;28;20050;-69
2023/05/12 06:39:39;;;;;;;57.08;27.77;;;15.90;99.90;;;;;;4998125;28;20050;-69
2023/05/12 06:42:05;;;;;;;70.05;31.13;;;16.00;99.90;;;;;;4997421;28;20042;-70
2023/05/12 06:44:31;;;;;;;63.65;30.88;;;16.10;99.90;;;;;;4980433;28;20428;-69
2023/05/12 06:46:57;;;;;;;75.10;32.00;;;16.20;99.90;;;;;;4997629;28;20050;-70
2023/05/12 06:49:23;;;;;;;56.90;29.20;;;16.10;99.90;;;;;;4997790;28;20046;-70
2023/05/12 06:51:48;;;;;;;60.42;30.75;;;16.20;99.90;;;;;;4997909;28;20065;-70
2023/05/12 06:54:14;;;;;;;46.80;27.55;;;16.10;99.90;;;;;;4997641;28;20443;-70
2023/05/12 06:56:40;;;;;;;57.35;30.25;;;16.10;99.90;;;;;;4997846;28;20125;-70
2023/05/12 06:59:05;;;;;;;51.60;28.73;;;15.90;99.90;;;;;;4997771;28;20046;-70
2023/05/12 07:01:32;;;;;;;59.28;29.25;;;16.00;99.90;;;;;;4997548;28;20042;-70
2023/05/12 07:03:58;;;;;;;56.47;27.77;;;16.00;99.90;;;;;;4997353;28;20129;-70
2023/05/12 07:06:27;;;;;;;68.00;31.33;;;16.00;99.90;;;;;;4997440;28;20044;-70
2023/05/12 07:08:54;;;;;;;66.85;32.45;;;16.10;99.90;;;;;;4997501;28;20038;-70
2023/05/12 07:11:20;;;;;;;64.95;32.83;;;16.20;99.90;;;;;;4997537;28;20038;-70
2023/05/12 07:13:46;;;;;;;101.65;38.05;;;16.20;99.90;;;;;;4996942;28;20101;-70
2023/05/12 07:16:16;;;;;;;66.47;33.55;;;16.30;99.90;;;;;;4997178;28;20092;-70
2023/05/12 07:18:42;;;;;;;61.95;31.48;;;16.30;99.90;;;;;;4997236;28;20125;-70
2023/05/12 07:21:08;;;;;;;69.50;32.80;;;16.30;99.90;;;;;;4997239;28;20034;-70
2023/05/12 07:23:35;;;;;;;78.95;35.90;;;16.30;99.90;;;;;;4979865;28;20097;-70
2023/05/12 07:26:02;;;;;;;72.03;35.10;;;16.50;99.90;;;;;;4997146;28;20042;-70
2023/05/12 07:28:35;;;;;;;62.13;32.33;;;16.50;99.90;;;;;;4997088;28;20419;-70
2023/05/12 07:31:06;;;;;;;67.57;30.02;;;16.60;99.90;;;;;;4997377;28;20045;-80
2023/05/12 07:33:32;;;;;;;58.30;32.33;;;16.40;99.90;;;;;;4963720;28;20046;-79
2023/05/12 07:35:57;;;;;;;60.30;28.55;;;16.30;99.90;;;;;;4963821;28;20042;-79
2023/05/12 07:38:23;;;;;;;77.53;36.03;;;16.30;99.90;;;;;;4979685;28;20038;-79
2023/05/12 07:40:50;;;;;;;62.92;35.67;;;16.30;99.90;;;;;;4963656;28;20042;-80
2023/05/12 07:43:16;;;;;;;71.50;37.35;;;16.30;99.90;;;;;;4979578;28;20086;-80
2023/05/12 07:45:42;;;;;;;73.53;38.13;;;16.30;99.90;;;;;;4979559;28;20104;-80
2023/05/12 07:48:10;;;;;;;68.78;37.85;;;16.60;99.90;;;;;;4980100;28;20098;-80
2023/05/12 07:50:36;;;;;;;70.28;37.55;;;16.50;99.90;;;;;;4979864;28;20061;-79
2023/05/12 07:53:03;;;;;;;62.75;38.03;;;16.40;99.90;;;;;;4964081;28;20129;-79
2023/05/12 07:55:29;;;;;;;71.28;39.33;;;16.30;99.90;;;;;;4979568;28;20054;-80
2023/05/12 07:57:54;;;;;;;75.82;39.55;;;16.40;99.90;;;;;;4963561;28;20052;-69
2023/05/12 08:00:20;;;;;;;73.03;40.53;;;16.70;99.90;;;;;;4996924;28;20053;-68
2023/05/12 08:02:46;;;;;;;77.90;41.88;;;16.90;99.90;;;;;;4997088;28;20131;-70
2023/05/12 08:05:12;;;;;;;70.70;39.53;;;17.10;99.90;;;;;;4996653;28;20052;-69
2023/05/12 08:07:42;;;;;;;65.28;38.90;;;17.20;99.90;;;;;;4996863;28;20074;-69
2023/05/12 08:10:09;;;;;;;63.75;39.38;;;17.40;99.90;;;;;;4996991;28;20038;-69
2023/05/12 08:12:34;;;;;;;69.68;39.90;;;17.40;99.90;;;;;;4996211;28;20040;-70
2023/05/12 08:15:00;;;;;;;67.32;39.83;;;17.60;99.90;;;;;;4996993;28;20038;-70
2023/05/12 08:17:26;;;;;;;61.58;36.47;;;17.70;99.90;;;;;;4980815;28;20047;-70
2023/05/12 08:19:51;;;;;;;65.35;39.72;;;17.80;99.90;;;;;;4997950;28;20097;-71
2023/05/12 08:22:17;;;;;;;61.10;37.97;;;17.70;99.90;;;;;;4996559;28;20078;-70
2023/05/12 08:24:44;;;;;;;65.57;39.22;;;17.80;99.90;;;;;;4963353;28;20343;-70
2023/05/12 08:27:10;;;;;;;68.05;39.92;;;17.90;99.90;;;;;;4976902;28;20096;-70
2023/05/12 08:29:36;;;;;;;60.70;37.47;;;17.90;99.90;;;;;;4996622;28;20034;-70
2023/05/12 08:32:02;;;;;;;61.70;38.28;;;17.90;99.90;;;;;;4998489;28;20424;-70
2023/05/12 08:34:28;;;;;;;62.40;38.80;;;17.90;99.90;;;;;;5000143;28;20125;-70
2023/05/12 08:36:54;;;;;;;60.55;39.53;;;17.90;99.90;;;;;;5000189;28;20046;-71
2023/05/12 08:39:20;;;;;;;68.65;39.30;;;18.00;99.90;;;;;;4999968;28;20038;-70
2023/05/12 08:42:16;;;;;;;73.53;40.55;;;18.20;99.90;;;;;;4999846;28;20042;-70
2023/05/12 08:44:42;;;;;;;60.33;36.15;;;18.30;99.90;;;;;;4999845;28;20313;-69
2023/05/12 08:47:10;;;;;;;59.60;37.50;;;18.30;99.90;;;;;;4999931;28;20050;-70
2023/05/12 08:49:38;;;;;;;53.10;35.10;;;18.50;99.90;;;;;;4999698;28;20050;-71
2023/05/12 08:52:05;;;;;;;50.38;34.88;;;18.70;99.90;;;;;;4999132;28;20049;-70
2023/05/12 08:54:32;;;;;;;54.90;34.75;;;18.80;99.90;;;;;;4997847;28;20148;-70
2023/05/12 08:56:59;;;;;;;55.78;36.05;;;18.90;99.90;;;;;;4972264;28;20339;-70
2023/05/12 08:59:25;;;;;;;52.95;35.38;;;19.00;99.90;;;;;;4986028;28;20045;-70
2023/05/12 09:01:53;;;;;;;49.70;33.53;;;19.00;99.90;;;;;;4998168;28;20046;-71
2023/05/12 09:04:19;;;;;;;49.47;32.55;;;19.00;99.90;;;;;;4995663;28;20062;-70
2023/05/12 09:06:45;;;;;;;48.53;32.47;;;19.20;99.90;;;;;;4978132;28;20431;-70
2023/05/12 09:09:13;;;;;;;46.55;31.65;;;19.30;99.90;;;;;;4998035;28;20172;-70
2023/05/12 09:11:40;;;;;;;46.75;32.25;;;19.40;99.90;;;;;;4999069;28;20184;-70
2023/05/12 09:14:16;;;;;;;49.72;33.13;;;19.40;99.90;;;;;;4999283;28;20046;-70
2023/05/12 09:16:47;;;;;;;47.38;32.40;;;19.60;99.90;;;;;;4999578;28;20335;-69
2023/05/12 09:19:21;;;;;;;46.90;29.73;;;19.70;99.90;;;;;;4982696;28;20034;-71
2023/05/12 09:21:50;;;;;;;47.22;32.67;;;19.80;99.90;;;;;;4995896;28;20038;-69
2023/05/12 09:24:16;;;;;;;47.95;32.17;;;19.80;99.90;;;;;;4965892;28;20046;-70
2023/05/12 09:26:46;;;;;;;45.80;32.78;;;20.00;99.90;;;;;;4986835;28;20445;-70
2023/05/12 09:29:12;;;;;;;41.55;29.50;;;19.70;99.90;;;;;;4979808;28;20039;-70
2023/05/12 09:31:38;;;;;;;43.10;28.63;;;19.90;99.90;;;;;;4982805;28;20038;-71
2023/05/12 09:34:08;;;;;;;46.13;30.63;;;19.70;99.90;;;;;;4998867;28;20042;-70
2023/05/12 09:36:34;;;;;;;41.10;29.05;;;19.70;99.90;;;;;;4998771;28;20049;-70
2023/05/12 09:39:03;;;;;;;40.80;29.27;;;19.80;99.90;;;;;;4985504;28;20039;-71
2023/05/12 09:41:40;;;;;;;39.10;27.30;;;20.00;99.90;;;;;;4979424;28;20086;-82
2023/05/12 09:44:07;;;;;;;36.80;27.63;;;19.90;99.90;;;;;;4944407;28;20046;-84
2023/05/12 09:46:34;;;;;;;39.90;28.13;;;19.60;99.90;;;;;;4946044;28;20085;-84
2023/05/12 09:49:02;;;;;;;39.55;28.75;;;19.20;99.90;;;;;;4968026;28;20038;-84
2023/05/12 09:51:29;;;;;;;36.38;27.13;;;19.00;99.90;;;;;;4965480;28;20133;-82
2023/05/12 09:53:56;;;;;;;36.05;24.50;;;19.10;99.90;;;;;;4981255;28;20046;-70
2023/05/12 09:56:24;;;;;;;30.73;23.13;;;19.00;99.90;;;;;;4981315;28;20046;-80
2023/05/12 09:58:50;;;;;;;27.17;19.65;;;19.20;99.90;;;;;;4981188;28;20053;-70
2023/05/12 10:01:17;;;;;;;25.52;18.83;;;19.60;99.90;;;;;;4998532;28;20034;-81
2023/05/12 10:03:49;;;;;;;27.33;19.48;;;19.70;99.90;;;;;;4981094;28;20038;-69
2023/05/12 10:06:21;;;;;;;27.63;19.15;;;19.90;99.90;;;;;;4981233;28;20053;-68
2023/05/12 10:09:00;;;;;;;24.95;17.38;;;20.40;99.90;;;;;;4998631;28;20038;-77
2023/05/12 10:11:28;;;;;;;22.67;18.25;;;20.80;99.90;;;;;;4998062;28;20119;-68
2023/05/12 10:13:54;;;;;;;23.75;18.10;;;21.00;99.90;;;;;;4997668;28;20046;-88
2023/05/12 10:16:21;;;;;;;22.05;15.38;;;20.90;99.90;;;;;;4946161;28;20129;-87
2023/05/12 10:18:47;;;;;;;21.15;16.23;;;20.60;99.90;;;;;;4946110;28;20042;-87
2023/05/12 10:21:13;;;;;;;22.63;16.67;;;20.40;99.90;;;;;;4962256;28;20043;-88
2023/05/12 10:23:43;;;;;;;23.10;17.17;;;20.30;99.90;;;;;;4989829;28;20042;-87
2023/05/12 10:26:10;;;;;;;24.70;17.13;;;20.30;99.90;;;;;;4997998;28;20046;-89
2023/05/12 10:28:36;;;;;;;24.73;18.35;;;20.40;99.90;;;;;;4964890;28;20397;-85
2023/05/12 10:31:07;;;;;;;23.80;18.45;;;20.40;99.90;;;;;;4981151;28;20077;-89
2023/05/12 10:33:33;;;;;;;23.50;17.88;;;20.50;99.90;;;;;;4966254;28;20125;-83
2023/05/12 10:35:59;;;;;;;25.20;18.25;;;20.40;99.90;;;;;;4980751;28;20089;-85
2023/05/12 10:38:25;;;;;;;20.77;16.55;;;20.70;99.90;;;;;;4964529;28;20089;-86
2023/05/12 10:40:56;;;;;;;26.63;17.33;;;20.90;99.90;;;;;;4964178;28;20142;-85
2023/05/12 10:43:23;;;;;;;21.98;16.65;;;21.10;99.90;;;;;;4964324;28;20288;-86
2023/05/12 10:46:28;;;;;;;21.08;16.02;;;21.20;99.90;;;;;;4980555;28;20050;-86
2023/05/12 10:48:54;;;;;;;20.13;15.25;;;21.20;99.90;;;;;;4899995;29;20036;-85
2023/05/12 10:51:22;;;;;;;19.67;16.33;;;21.10;99.90;;;;;;4966877;28;20105;-85
2023/05/12 10:53:55;;;;;;;24.15;17.25;;;21.40;99.90;;;;;;4997697;28;20097;-85
2023/05/12 10:56:27;;;;;;;19.15;16.17;;;21.40;99.90;;;;;;4980157;28;20308;-81
2023/05/12 10:59:17;;;;;;;22.38;17.48;;;21.50;99.90;;;;;;4980308;28;20038;-82
2023/05/12 11:01:59;;;;;;;20.00;15.95;;;21.70;99.90;;;;;;4980301;28;20082;-80
2023/05/12 11:04:46;;;;;;;22.38;15.95;;;21.70;99.90;;;;;;4964081;28;20042;-67
2023/05/12 11:07:13;;;;;;;21.40;15.07;;;22.30;99.90;;;;;;4997133;28;20390;-72
2023/05/12 11:09:44;;;;;;;18.13;14.07;;;23.00;99.90;;;;;;4980337;28;20341;-71
2023/05/12 11:12:11;;;;;;;19.02;15.10;;;23.10;99.90;;;;;;4997408;28;20081;-71
2023/05/12 11:14:38;;;;;;;16.52;14.73;;;23.20;99.90;;;;;;4989981;28;20428;-71
2023/05/12 11:17:04;;;;;;;16.80;14.00;;;23.50;99.90;;;;;;4977681;28;20443;-71
2023/05/12 11:19:31;;;;;;;16.17;11.98;;;24.10;99.90;;;;;;4977584;28;20097;-72
2023/05/12 11:21:57;;;;;;;16.67;12.55;;;24.40;99.90;;;;;;4994073;28;20423;-71
2023/05/12 11:24:23;;;;;;;14.07;11.52;;;24.40;99.90;;;;;;4997030;28;20061;-74
2023/05/12 11:26:52;;;;;;;19.85;10.95;;;24.80;99.90;;;;;;4997190;28;20117;-72
2023/05/12 11:29:18;;;;;;;14.80;12.30;;;24.60;99.90;;;;;;4979527;28;20422;-72
2023/05/12 11:31:48;;;;;;;15.65;11.43;;;24.30;99.90;;;;;;4997161;28;20317;-76
2023/05/12 11:34:14;;;;;;;15.57;12.18;;;24.00;99.90;;;;;;4997246;28;20046;-87
2023/05/12 11:36:41;;;;;;;15.27;11.05;;;23.30;99.90;;;;;;4947668;28;20046;-86
2023/05/12 11:39:19;;;;;;;14.45;10.27;;;22.90;99.90;;;;;;4963952;28;20129;-85
2023/05/12 11:41:46;;;;;;;13.30;9.05;;;23.00;99.90;;;;;;4979949;28;20130;-73
2023/05/12 11:44:20;;;;;;;9.88;8.07;;;23.20;99.90;;;;;;4996478;28;20050;-70
2023/05/12 11:47:00;;;;;;;12.02;8.68;;;23.70;99.90;;;;;;4997299;28;20054;-70
2023/05/12 11:49:27;;;;;;;11.43;8.68;;;24.50;99.90;;;;;;4993755;28;20035;-70
2023/05/12 11:52:01;;;;;;;12.45;8.63;;;24.50;99.90;;;;;;4993387;28;20043;-71
2023/05/12 11:54:30;;;;;;;13.15;8.02;;;24.50;99.90;;;;;;4993758;28;20124;-71
2023/05/12 11:56:56;;;;;;;10.15;7.60;;;24.70;99.90;;;;;;4995891;28;20046;-73
2023/05/12 11:59:29;;;;;;;9.55;7.30;;;25.00;99.90;;;;;;4996494;28;20126;-71
2023/05/12 12:01:56;;;;;;;8.05;5.93;;;25.30;99.90;;;;;;4995253;28;20042;-72
2023/05/12 12:04:41;;;;;;;5.68;4.18;;;25.60;99.90;;;;;;4996524;28;20042;-71
2023/05/12 12:07:08;;;;;;;5.65;3.90;;;25.70;99.90;;;;;;4999004;28;20048;-71
2023/05/12 12:09:35;;;;;;;5.28;3.60;;;25.80;99.90;;;;;;5000980;28;20046;-71
2023/05/12 12:12:02;;;;;;;6.65;3.60;;;26.00;99.90;;;;;;5000744;28;20085;-71
2023/05/12 12:14:30;;;;;;;18.58;4.45;;;26.00;99.90;;;;;;5000186;28;20420;-71
2023/05/12 12:16:56;;;;;;;7.38;3.45;;;25.90;99.90;;;;;;5000571;28;20057;-71
2023/05/12 12:19:21;;;;;;;7.35;4.82;;;26.10;99.90;;;;;;5000581;28;20043;-70
2023/05/12 12:21:47;;;;;;;6.50;3.92;;;26.30;99.90;;;;;;5000505;28;20038;-68
2023/05/12 12:24:13;;;;;;;5.90;3.55;;;26.60;99.90;;;;;;5000561;28;20328;-73
2023/05/12 12:26:39;;;;;;;7.40;3.40;;;26.70;99.90;;;;;;5000377;28;20042;-78
2023/05/12 12:29:04;;;;;;;4.32;2.97;;;26.60;99.90;;;;;;4951358;28;20043;-74